Date,TemperatureHighF,TemperatureAvgF,TemperatureLowF,DewpointHighF,DewpointAvgF,DewpointLowF,HumidityHigh,HumidityAvg,HumidityLow,PressureMaxIn,PressureMinIn,WindSpeedMaxMPH,WindSpeedAvgMPH,GustSpeedMaxMPH,PrecipitationSumIn
2013-5-1,73,63,54,51,41,32,82,49,23,30.63,30.50,12,6,23,0.00
2013-5-2,75,63,49,47,40,34,61,44,29,30.68,30.52,8,4,13,0.00
2013-5-3,72,62,50,48,44,40,73,53,37,30.58,30.48,11,5,16,0.00
2013-5-4,71,60,48,47,42,37,67,52,34,30.56,30.41,10,5,14,0.00
2013-5-5,74,61,46,49,43,36,85,56,26,30.48,30.34,9,3,14,0.00
2013-5-6,73,61,46,48,40,34,74,49,27,30.44,30.28,10,5,16,0.00
2013-5-7,76,65,52,56,51,46,87,64,35,30.38,30.25,7,3,12,0.00
2013-5-8,67,61,56,60,56,50,96,83,71,30.32,30.17,9,3,17,0.11
2013-5-9,68,59,51,61,55,50,97,89,71,30.21,30.14,9,3,14,0.38
2013-5-10,72,60,49,60,56,48,98,85,64,30.22,30.00,13,5,18,0.54
2013-5-11,61,56,47,58,51,44,96,85,69,30.03,29.92,11,6,22,0.41
2013-5-12,50,45,37,44,35,28,91,69,44,30.20,29.96,17,10,29,0.01
2013-5-13,47,40,34,33,30,28,81,69,52,30.41,30.20,12,8,21,0.00
2013-5-14,57,44,30,37,32,28,93,65,37,30.45,30.26,7,3,13,0.00
2013-5-15,75,54,45,56,42,33,80,65,50,30.26,29.89,12,5,33,0.04
2013-5-16,61,60,58,45,44,43,62,57,52,30.00,29.98,4,3,7,0.00
2013-5-18,68,62,52,52,48,43,78,61,47,30.56,30.42,9,5,12,0.00
2013-5-19,73,63,56,62,56,51,87,79,66,30.44,30.27,13,7,24,0.00
2013-5-20,82,72,59,67,62,57,92,72,54,30.31,30.10,8,4,18,0.00
2013-5-21,83,72,62,72,65,59,91,80,64,30.14,29.99,12,4,20,0.65
2013-5-22,83,77,73,72,62,57,77,59,48,29.96,29.89,15,7,22,0.01
2013-5-23,76,67,48,66,60,47,95,80,64,30.07,29.94,11,6,21,0.44
2013-5-24,48,42,38,46,39,36,96,90,71,30.45,30.07,11,8,20,0.13
2013-5-25,55,47,39,41,37,35,87,69,48,30.47,30.39,12,7,23,0.00
2013-5-26,59,51,41,40,36,32,82,60,38,30.47,30.37,12,7,20,0.00
2013-5-27,70,56,44,44,39,35,78,53,32,30.54,30.41,7,4,11,0.00
2013-5-28,61,55,48,56,50,41,98,84,62,30.44,30.23,9,4,15,0.80
2013-5-29,83,71,58,71,64,57,98,81,63,30.27,30.17,11,5,19,0.13
2013-5-30,87,76,64,69,65,62,93,73,47,30.35,30.26,7,3,13,0.00
2013-5-31,90,78,65,70,64,61,91,65,39,30.32,30.14,8,4,13,0.00